Terminal Aerodrome Forecast
Issued by NWS Charleston, WV

Current Version | Previous Version | Text Only | Print | Product List | Glossary Off
Versions: 1 2 3 4 5 6 7 8 9 10 11 12 13 14 15 16 17 18 19 20 21

176
FTUS41 KRLX 241025 AAB
TAFCRW
TAF AMD
KCRW 241025Z 2410/2506 00000KT 4SM BR FEW001
     FM241200 29005KT P6SM FEW045=

USA.gov is the U.S. government's official web portal to all federal, state and local government web resources and services.